Johnstown, Ohio
Current Conditions -  °F | °C
As of 8:51 PM on Monday 24 Nov 2014 (Local Time) from KCMH Reporting Station
Overcast Overcast  
Wind Chill:   Ceiling: 4500
Heat Index:   Visibility: 10mi
Dew Point: -2°   Wind: 17mph
Humidity: 58%   Direction: 260°W
Pressure: 29.84"   Gusts: 29mph
Location:  40.15°N, 82.69°W
Report Text: KCMH 250151Z 26015G25KT 10SM FEW035 OVC045 06/M02 A2984 RMK AO2 SLP106 T00611017 $
Loading
Personal Weather Stations






























Interactive Weather Map New forecast layout! Learn more

10-Day Weather Forecast

Advertisements
Track Severe Weather on mobile